Time;durP1;ratioP1;P1;durP2;ratioP2;P2;SDS_P1;SDS_P2;PMS_P1;PMS_P2;Temp;Humidity;BMP_temperature;BMP_pressure;BME280_temperature;BME280_humidity;BME280_pressure;Samples;Min_cycle;Max_cycle;Signal;HPM_P1;HPM_P2
2022/02/11 00:05:54;;;;;;;7.40;1.50;;;4.00;99.90;;;;;;5113379;28;20506;-85
2022/02/11 00:08:19;;;;;;;10.43;1.57;;;4.00;99.90;;;;;;5113192;28;20441;-85
2022/02/11 00:10:45;;;;;;;9.70;1.60;;;4.00;99.90;;;;;;5113340;28;20440;-85
2022/02/11 00:13:10;;;;;;;9.93;1.40;;;4.00;99.90;;;;;;5113260;28;20210;-84
2022/02/11 00:15:43;;;;;;;6.50;0.60;;;4.00;99.90;;;;;;5115307;28;20246;-84
2022/02/11 00:18:11;;;;;;;9.10;2.17;;;3.90;99.90;;;;;;5113338;28;20171;-87
2022/02/11 00:20:37;;;;;;;3.50;1.33;;;3.90;99.90;;;;;;5113976;28;20421;-87
2022/02/11 00:23:06;;;;;;;6.27;1.70;;;3.80;99.90;;;;;;5116113;28;20439;-87
2022/02/11 00:25:34;;;;;;;3.93;0.83;;;3.80;99.90;;;;;;5115993;28;20466;-84
2022/02/11 00:33:29;;;;;;;3.07;0.93;;;3.70;99.90;;;;;;5117512;28;20488;-86
2022/02/11 00:36:04;;;;;;;4.07;0.80;;;3.60;99.90;;;;;;5117272;28;20418;-88
2022/02/11 01:03:39;;;;;;;4.80;1.10;;;3.20;99.90;;;;;;5121088;28;20548;-86
2022/02/11 01:06:05;;;;;;;4.83;1.03;;;3.20;99.90;;;;;;5116616;28;20512;-87
2022/02/11 01:08:31;;;;;;;8.83;1.63;;;3.10;99.90;;;;;;5117274;28;20465;-88
2022/02/11 01:10:59;;;;;;;8.53;1.03;;;3.00;99.90;;;;;;5115913;28;20176;-89
2022/02/11 01:13:25;;;;;;;11.67;1.33;;;3.00;99.90;;;;;;5115413;28;20207;-88
2022/02/11 01:15:58;;;;;;;14.43;2.40;;;2.90;99.90;;;;;;5117186;28;20748;-88
2022/02/11 01:18:24;;;;;;;7.23;2.33;;;2.90;99.90;;;;;;5116000;28;20921;-86
2022/02/11 01:20:56;;;;;;;10.40;1.33;;;2.80;99.90;;;;;;5116125;28;20421;-87
2022/02/11 01:31:54;;;;;;;6.27;1.83;;;2.60;99.90;;;;;;5116257;28;20420;-87
2022/02/11 01:34:46;;;;;;;2.63;0.80;;;2.70;99.90;;;;;;5114450;28;20477;-86
2022/02/11 01:37:26;;;;;;;5.53;1.40;;;2.60;99.90;;;;;;5116447;28;20415;-86
2022/02/11 01:45:47;;;;;;;9.73;1.10;;;2.40;99.90;;;;;;5115970;28;20494;-86
2022/02/11 01:53:52;;;;;;;5.63;1.63;;;2.40;99.90;;;;;;5115907;28;20506;-86
2022/02/11 01:56:37;;;;;;;9.03;2.63;;;2.40;99.90;;;;;;5114544;28;20944;-85
2022/02/11 01:59:38;;;;;;;8.53;2.53;;;2.40;99.90;;;;;;5115498;28;20756;-86
2022/02/11 02:02:37;;;;;;;6.37;1.50;;;2.50;99.90;;;;;;5115291;28;20461;-86
2022/02/11 02:10:41;;;;;;;5.60;1.40;;;2.30;99.90;;;;;;5115776;28;20551;-86
2022/02/11 02:13:25;;;;;;;7.70;1.97;;;2.30;99.90;;;;;;5115084;28;20432;-85
2022/02/11 02:26:12;;;;;;;4.20;1.20;;;2.20;99.90;;;;;;5115278;28;20418;-85
2022/02/11 02:37:23;;;;;;;8.73;1.67;;;2.00;99.90;;;;;;5052338;28;20508;-85
2022/02/11 02:59:05;;;;;;;10.80;2.30;;;1.90;99.90;;;;;;5114412;28;20406;-85
2022/02/11 03:15:42;;;;;;;7.73;1.50;;;2.10;99.90;;;;;;5114219;28;20504;-85
2022/02/11 03:56:56;;;;;;;6.53;1.57;;;2.10;99.90;;;;;;5113371;28;20417;-85
2022/02/11 04:08:21;;;;;;;5.40;1.93;;;2.00;99.90;;;;;;5113159;28;20409;-84
2022/02/11 04:21:52;;;;;;;8.80;2.70;;;1.70;99.90;;;;;;5113694;28;20470;-84
2022/02/11 04:28:14;;;;;;;3.47;1.03;;;1.70;99.90;;;;;;5113303;28;20909;-84
2022/02/11 04:59:55;;;;;;;15.00;3.30;;;1.40;99.90;;;;;;5113716;28;20400;-87
2022/02/11 05:02:30;;;;;;;6.33;2.03;;;1.50;99.90;;;;;;5111732;28;20457;-86
2022/02/11 05:04:56;;;;;;;3.50;1.50;;;1.50;99.90;;;;;;5113395;28;20166;-87
2022/02/11 05:07:22;;;;;;;6.17;1.67;;;1.50;99.90;;;;;;5115159;28;20414;-88
2022/02/11 05:09:47;;;;;;;7.83;2.13;;;1.50;99.90;;;;;;5118114;28;20409;-85
2022/02/11 05:12:13;;;;;;;6.43;2.30;;;1.50;99.90;;;;;;5115575;28;20171;-84
2022/02/11 05:14:38;;;;;;;4.87;2.93;;;1.50;99.90;;;;;;5116454;28;20203;-88
2022/02/11 05:17:06;;;;;;;6.43;2.33;;;1.50;99.90;;;;;;5115411;28;20643;-85
2022/02/11 05:19:32;;;;;;;5.13;2.03;;;1.40;99.90;;;;;;5115596;28;20267;-86
2022/02/11 05:21:57;;;;;;;3.50;1.33;;;1.40;99.90;;;;;;5116525;28;20438;-87
2022/02/11 05:24:23;;;;;;;7.63;2.60;;;1.30;99.90;;;;;;5116335;28;20246;-87
2022/02/11 05:26:48;;;;;;;8.93;3.40;;;1.30;99.90;;;;;;5115153;28;20640;-85
2022/02/11 05:29:14;;;;;;;8.23;2.40;;;;;;;;;;5115768;28;20251;-85
2022/02/11 05:31:39;;;;;;;7.53;2.23;;;1.20;99.90;;;;;;5115105;28;20167;-85
2022/02/11 05:34:05;;;;;;;7.20;3.77;;;1.30;99.90;;;;;;5116886;28;20468;-88
2022/02/11 05:36:31;;;;;;;6.60;2.77;;;1.30;99.90;;;;;;5115520;28;20182;-85
2022/02/11 05:38:56;;;;;;;8.33;1.83;;;1.30;99.90;;;;;;5114969;28;20546;-87
2022/02/11 05:41:22;;;;;;;6.90;3.53;;;1.40;99.90;;;;;;5116577;28;20178;-86
2022/02/11 05:43:48;;;;;;;12.30;3.43;;;1.40;99.90;;;;;;5116207;28;20179;-89
2022/02/11 05:46:14;;;;;;;5.57;2.53;;;1.30;99.90;;;;;;5116739;28;20536;-86
2022/02/11 05:48:40;;;;;;;3.73;2.10;;;1.30;99.90;;;;;;5116366;28;20909;-89
2022/02/11 05:51:07;;;;;;;5.07;2.27;;;1.30;99.90;;;;;;5116865;28;20421;-89
2022/02/11 05:53:33;;;;;;;13.27;3.40;;;1.30;99.90;;;;;;5115070;28;20172;-85
2022/02/11 05:55:58;;;;;;;6.83;2.60;;;1.30;99.90;;;;;;5116256;28;20777;-85
2022/02/11 05:58:24;;;;;;;10.50;3.20;;;1.40;99.90;;;;;;5115616;28;20185;-88
2022/02/11 06:00:49;;;;;;;7.87;2.53;;;1.50;99.90;;;;;;5115302;28;20171;-89
2022/02/11 06:03:17;;;;;;;11.03;2.70;;;1.50;99.90;;;;;;5115995;28;20290;-87
2022/02/11 06:05:43;;;;;;;7.07;2.97;;;1.50;99.90;;;;;;5115990;28;20558;-86
2022/02/11 06:08:08;;;;;;;5.60;3.10;;;1.60;99.90;;;;;;5116372;28;20413;-90
2022/02/11 06:10:34;;;;;;;9.70;3.10;;;1.60;99.90;;;;;;5116480;28;20172;-90
2022/02/11 06:13:00;;;;;;;8.67;3.37;;;1.70;99.90;;;;;;5116417;28;20164;-89
2022/02/11 06:15:25;;;;;;;6.00;3.73;;;1.70;99.90;;;;;;5114643;28;20583;-87
2022/02/11 06:17:51;;;;;;;10.77;3.80;;;1.60;99.90;;;;;;5114550;28;20418;-90
2022/02/11 06:20:16;;;;;;;5.13;3.57;;;1.60;99.90;;;;;;5102718;28;20245;-89
2022/02/11 06:22:45;;;;;;;11.93;4.00;;;1.70;99.90;;;;;;5103233;28;20163;-89
2022/02/11 06:25:15;;;;;;;11.53;3.73;;;1.60;99.90;;;;;;5106637;28;20646;-88
2022/02/11 06:27:40;;;;;;;4.60;2.30;;;1.60;99.90;;;;;;5110117;28;20414;-90
2022/02/11 06:30:07;;;;;;;8.97;3.00;;;1.60;99.90;;;;;;5114572;28;20425;-88
2022/02/11 06:32:32;;;;;;;13.83;4.17;;;1.70;99.90;;;;;;5115927;28;20168;-87
2022/02/11 06:35:00;;;;;;;9.13;3.50;;;1.70;99.90;;;;;;5114345;28;20467;-88
2022/02/11 06:37:26;;;;;;;9.20;3.23;;;1.70;99.90;;;;;;5114184;28;20163;-89
2022/02/11 06:39:51;;;;;;;10.10;3.50;;;1.70;99.90;;;;;;5114123;28;20424;-89
2022/02/11 06:42:17;;;;;;;11.03;3.80;;;1.70;99.90;;;;;;5114307;28;20647;-88
2022/02/11 06:44:43;;;;;;;10.37;2.93;;;1.70;99.90;;;;;;5114629;28;20657;-88
2022/02/11 06:47:08;;;;;;;6.73;3.30;;;1.70;99.90;;;;;;5114651;28;20492;-87
2022/02/11 06:49:34;;;;;;;5.20;2.83;;;1.80;99.90;;;;;;5115119;28;20573;-86
2022/02/11 06:51:59;;;;;;;8.83;3.77;;;1.80;99.90;;;;;;5115112;28;20195;-86
2022/02/11 06:54:25;;;;;;;8.13;3.37;;;1.80;99.90;;;;;;5113846;28;20211;-87
2022/02/11 06:56:50;;;;;;;9.60;5.03;;;1.90;99.90;;;;;;5113598;28;20687;-86
2022/02/11 06:59:16;;;;;;;6.57;2.90;;;1.90;99.90;;;;;;5113393;28;20176;-87
2022/02/11 07:01:41;;;;;;;9.13;4.30;;;2.00;99.90;;;;;;5114524;28;20218;-84
2022/02/11 07:04:07;;;;;;;17.67;5.77;;;2.00;99.90;;;;;;5114748;28;20184;-86
2022/02/11 07:06:32;;;;;;;11.83;4.23;;;2.10;99.90;;;;;;5114691;28;20178;-86
2022/02/11 07:08:58;;;;;;;10.27;4.40;;;2.10;99.90;;;;;;5113245;28;20176;-86
2022/02/11 07:11:23;;;;;;;10.00;4.10;;;2.00;99.90;;;;;;5113727;28;20616;-86
2022/02/11 07:13:49;;;;;;;10.13;4.77;;;2.10;99.90;;;;;;5113170;28;20273;-87
2022/02/11 07:16:16;;;;;;;18.53;5.50;;;2.10;99.90;;;;;;5115222;28;20195;-87
2022/02/11 07:18:42;;;;;;;11.20;5.43;;;2.10;99.90;;;;;;5113807;28;20248;-88
2022/02/11 07:21:08;;;;;;;10.00;4.10;;;2.10;99.90;;;;;;5114775;28;20767;-87
2022/02/11 07:23:34;;;;;;;11.90;5.30;;;2.20;99.90;;;;;;5114370;28;20401;-84
2022/02/11 07:25:59;;;;;;;10.33;4.93;;;2.20;99.90;;;;;;5113614;28;20271;-85
2022/02/11 07:28:25;;;;;;;9.60;4.77;;;2.20;99.90;;;;;;5113123;28;20445;-89
2022/02/11 07:30:53;;;;;;;11.83;5.90;;;2.30;99.90;;;;;;5114074;28;20184;-89
2022/02/11 07:33:21;;;;;;;9.03;5.03;;;2.30;99.90;;;;;;5113559;28;20208;-90
2022/02/11 07:35:47;;;;;;;11.83;4.17;;;2.30;99.90;;;;;;5113656;28;20428;-87
2022/02/11 07:38:12;;;;;;;9.27;4.87;;;2.40;99.90;;;;;;5114102;28;20845;-89
2022/02/11 07:40:45;;;;;;;13.17;5.97;;;2.40;99.90;;;;;;5114500;28;20171;-90
2022/02/11 07:43:10;;;;;;;15.43;6.50;;;2.40;99.90;;;;;;5115650;28;20195;-90
2022/02/11 07:45:37;;;;;;;16.10;6.17;;;2.50;99.90;;;;;;5130172;28;20421;-89
2022/02/11 07:48:03;;;;;;;11.33;5.00;;;2.40;99.90;;;;;;5121589;28;20188;-90
2022/02/11 07:50:30;;;;;;;14.67;6.40;;;2.50;99.90;;;;;;5123038;28;20467;-90
2022/02/11 07:52:56;;;;;;;8.43;4.00;;;2.50;99.90;;;;;;5120477;28;20462;-92
2022/02/11 07:55:22;;;;;;;8.23;4.60;;;2.50;99.90;;;;;;5118867;28;20865;-91
2022/02/11 07:57:47;;;;;;;10.33;3.27;;;2.60;99.90;;;;;;5113724;28;20421;-90
2022/02/11 08:00:14;;;;;;;7.80;3.03;;;2.60;99.90;;;;;;5113587;28;20178;-91
2022/02/11 08:02:40;;;;;;;8.20;4.03;;;2.70;99.90;;;;;;5114605;28;20207;-90
2022/02/11 08:05:07;;;;;;;9.90;4.00;;;2.70;99.90;;;;;;5115469;28;20417;-91
2022/02/11 08:07:33;;;;;;;11.23;4.63;;;2.80;99.90;;;;;;5115311;28;20512;-89
2022/02/11 08:09:58;;;;;;;10.40;5.70;;;3.00;99.90;;;;;;5114541;28;20468;-88
2022/02/11 08:12:24;;;;;;;10.17;5.10;;;3.20;99.90;;;;;;5114258;28;20186;-92
2022/02/11 08:14:50;;;;;;;12.10;5.10;;;3.40;99.90;;;;;;5114587;28;20294;-91
2022/02/11 08:17:16;;;;;;;9.03;4.50;;;3.70;99.90;;;;;;5115256;28;20249;-92
2022/02/11 08:19:41;;;;;;;11.27;4.47;;;3.60;99.90;;;;;;5113359;28;20417;-90
2022/02/11 08:22:07;;;;;;;8.20;4.30;;;3.40;99.90;;;;;;5114630;28;20409;-90
2022/02/11 08:24:32;;;;;;;11.33;4.40;;;3.30;99.90;;;;;;5113748;28;20171;-91
2022/02/11 08:26:58;;;;;;;8.20;4.50;;;3.30;99.90;;;;;;5113883;28;20258;-91
2022/02/11 08:29:25;;;;;;;11.07;5.53;;;3.20;99.90;;;;;;5112483;28;20173;-86
2022/02/11 08:31:58;;;;;;;10.17;4.67;;;3.20;99.90;;;;;;5113447;28;20583;-92
2022/02/11 08:34:25;;;;;;;5.93;3.73;;;3.20;99.90;;;;;;5113105;28;21030;-90
2022/02/11 08:36:50;;;;;;;7.20;4.47;;;3.10;99.90;;;;;;5113024;28;20799;-88
2022/02/11 08:39:19;;;;;;;8.83;4.30;;;3.10;99.90;;;;;;5113791;28;20404;-88
2022/02/11 08:41:45;;;;;;;8.73;4.33;;;3.10;99.90;;;;;;5113374;28;20224;-89
2022/02/11 08:44:11;;;;;;;8.37;4.50;;;3.20;99.90;;;;;;5117999;28;20412;-87
2022/02/11 08:46:36;;;;;;;5.80;3.70;;;3.20;99.90;;;;;;5117804;28;20200;-89
2022/02/11 08:49:02;;;;;;;14.50;4.80;;;3.30;99.90;;;;;;5117734;28;20232;-90
2022/02/11 08:51:28;;;;;;;10.50;4.30;;;3.40;99.90;;;;;;5116288;28;20513;-88
2022/02/11 08:53:56;;;;;;;7.60;5.30;;;3.50;99.90;;;;;;5117431;27;20222;-88
2022/02/11 08:56:22;;;;;;;10.13;3.70;;;3.50;99.90;;;;;;5117314;28;20964;-86
2022/02/11 08:58:48;;;;;;;14.63;5.47;;;3.50;99.90;;;;;;5116936;28;20415;-86
2022/02/11 09:01:13;;;;;;;8.50;4.50;;;3.40;99.90;;;;;;5116745;28;20421;-86
2022/02/11 09:03:42;;;;;;;7.30;3.60;;;3.30;99.90;;;;;;5115524;28;20227;-88
2022/02/11 09:06:10;;;;;;;14.97;5.33;;;3.30;99.90;;;;;;5116977;28;20558;-88
2022/02/11 09:08:35;;;;;;;8.50;2.87;;;3.30;99.90;;;;;;5115656;28;20420;-86
2022/02/11 09:11:13;;;;;;;9.27;4.60;;;3.30;99.90;;;;;;5116785;28;20417;-87
2022/02/11 09:13:39;;;;;;;7.00;3.77;;;3.30;99.90;;;;;;5116246;28;20281;-88
2022/02/11 09:16:04;;;;;;;6.37;3.73;;;3.30;99.90;;;;;;5115221;28;20509;-87
2022/02/11 09:18:30;;;;;;;10.33;4.53;;;3.40;99.90;;;;;;5115299;28;20259;-84
2022/02/11 09:20:57;;;;;;;8.40;4.40;;;3.30;99.90;;;;;;5115363;28;20524;-87
2022/02/11 09:23:24;;;;;;;8.60;4.80;;;3.50;99.90;;;;;;5116708;27;20409;-84
2022/02/11 09:25:51;;;;;;;16.53;5.40;;;3.50;99.90;;;;;;5115392;28;20418;-88
2022/02/11 09:28:17;;;;;;;7.50;4.33;;;3.50;99.90;;;;;;5115501;28;20422;-88
2022/02/11 09:30:43;;;;;;;8.27;4.10;;;3.70;99.90;;;;;;5117628;28;20940;-90
2022/02/11 09:33:09;;;;;;;12.53;4.50;;;3.70;99.90;;;;;;5117118;28;20189;-88
2022/02/11 09:35:35;;;;;;;12.20;3.80;;;3.70;99.90;;;;;;5116735;28;20199;-87
2022/02/11 09:38:01;;;;;;;11.47;4.50;;;3.80;99.90;;;;;;5115029;28;20258;-87
2022/02/11 09:40:26;;;;;;;7.97;3.63;;;3.80;99.90;;;;;;5116019;28;21011;-86
2022/02/11 09:42:54;;;;;;;6.30;3.63;;;3.70;99.90;;;;;;5115631;28;20265;-87
2022/02/11 09:45:20;;;;;;;5.80;3.53;;;3.80;99.90;;;;;;5116457;28;20168;-90
2022/02/11 09:47:47;;;;;;;10.30;3.83;;;3.80;99.90;;;;;;5114986;28;20512;-87
2022/02/11 09:50:13;;;;;;;7.97;4.10;;;3.90;99.90;;;;;;5114871;28;20521;-87
2022/02/11 09:52:43;;;;;;;8.27;4.60;;;4.00;99.90;;;;;;5115669;28;20441;-87
2022/02/11 09:57:54;;;;;;;8.33;3.73;;;4.00;99.90;;;;;;5115780;28;20413;-87
2022/02/11 10:00:25;;;;;;;6.57;3.30;;;4.10;99.90;;;;;;5115042;28;20433;-86
2022/02/11 10:02:55;;;;;;;6.83;2.60;;;4.10;99.90;;;;;;5115132;28;20492;-89
2022/02/11 10:05:24;;;;;;;4.17;3.10;;;4.00;99.90;;;;;;5114910;28;20882;-89
2022/02/11 10:07:50;;;;;;;7.67;1.93;;;4.10;99.90;;;;;;5116073;28;20427;-88
2022/02/11 10:10:18;;;;;;;3.93;1.40;;;4.10;99.90;;;;;;5114863;28;20496;-87
2022/02/11 10:12:45;;;;;;;7.70;2.73;;;4.10;99.90;;;;;;5115551;28;20167;-91
2022/02/11 10:15:21;;;;;;;4.27;1.50;;;4.10;99.90;;;;;;5116016;28;20487;-89
2022/02/11 10:17:46;;;;;;;3.30;2.40;;;4.10;99.90;;;;;;5116023;28;20413;-88
2022/02/11 10:20:12;;;;;;;6.80;2.30;;;4.30;99.90;;;;;;5114325;28;20925;-88
2022/02/11 10:22:37;;;;;;;7.90;2.33;;;4.30;99.90;;;;;;5115797;28;20173;-88
2022/02/11 10:25:03;;;;;;;5.63;2.17;;;4.40;99.90;;;;;;5115167;28;20192;-88
2022/02/11 10:27:30;;;;;;;3.30;1.00;;;4.50;99.90;;;;;;5114170;28;20271;-87
2022/02/11 10:29:58;;;;;;;4.53;2.37;;;4.40;99.90;;;;;;5112893;28;20994;-89
2022/02/11 10:32:38;;;;;;;6.13;3.07;;;4.40;99.90;;;;;;5113931;28;20447;-87
2022/02/11 10:35:06;;;;;;;4.80;2.20;;;4.40;99.90;;;;;;5114496;28;20925;-87
2022/02/11 10:37:31;;;;;;;5.93;2.83;;;4.40;99.90;;;;;;5114437;28;20424;-88
2022/02/11 10:39:58;;;;;;;6.57;2.60;;;4.40;99.90;;;;;;5114145;28;20422;-88
2022/02/11 10:42:42;;;;;;;10.40;3.57;;;4.50;99.90;;;;;;5114898;28;20162;-89
2022/02/11 10:45:40;;;;;;;6.80;2.57;;;4.50;99.90;;;;;;5113867;28;20510;-88
2022/02/11 10:48:10;;;;;;;7.87;2.63;;;4.50;99.90;;;;;;5114365;28;20426;-88
2022/02/11 10:50:36;;;;;;;7.07;2.93;;;4.50;99.90;;;;;;5115380;28;20398;-89
2022/02/11 10:53:01;;;;;;;5.93;2.67;;;4.60;99.90;;;;;;5098210;28;20422;-88
2022/02/11 10:55:30;;;;;;;4.73;2.87;;;4.70;99.90;;;;;;5097829;28;20212;-88
2022/02/11 10:57:58;;;;;;;7.87;3.30;;;5.00;99.90;;;;;;5113235;28;20200;-87
2022/02/11 11:00:24;;;;;;;7.17;2.70;;;5.60;99.90;;;;;;5113461;28;20425;-87
2022/02/11 11:02:49;;;;;;;4.17;1.70;;;6.10;99.90;;;;;;5114332;28;20814;-88
2022/02/11 11:05:15;;;;;;;3.23;1.90;;;6.70;99.90;;;;;;5113475;28;20424;-91
2022/02/11 11:07:43;;;;;;;4.97;2.20;;;7.80;99.90;;;;;;5121219;28;20183;-90
2022/02/11 11:10:14;;;;;;;5.20;2.30;;;8.00;99.90;;;;;;5123103;28;20172;-90
2022/02/11 11:12:42;;;;;;;5.90;2.37;;;7.30;99.90;;;;;;5118558;28;20415;-90
2022/02/11 11:15:08;;;;;;;7.57;2.93;;;6.50;99.90;;;;;;5114852;28;20880;-89
2022/02/11 11:17:37;;;;;;;4.13;2.33;;;6.20;99.90;;;;;;5114877;28;20481;-88
2022/02/11 11:20:04;;;;;;;5.63;2.80;;;6.10;99.90;;;;;;5114610;28;20425;-90
2022/02/11 11:22:37;;;;;;;3.40;2.50;;;5.90;99.90;;;;;;5114658;28;20429;-89
2022/02/11 11:25:05;;;;;;;4.20;2.90;;;6.00;99.90;;;;;;5114835;28;20416;-88
2022/02/11 11:28:03;;;;;;;6.70;4.90;;;6.00;99.90;;;;;;5114464;28;20408;-88
2022/02/11 11:30:36;;;;;;;5.43;3.43;;;6.10;99.90;;;;;;5114450;28;20450;-89
2022/02/11 11:33:05;;;;;;;7.80;4.40;;;6.20;99.90;;;;;;5114651;28;20597;-87
2022/02/11 11:35:31;;;;;;;4.67;3.40;;;6.30;99.90;;;;;;5114347;28;20474;-90
2022/02/11 11:38:25;;;;;;;5.07;3.30;;;6.40;99.90;;;;;;5114508;28;20473;-88
2022/02/11 11:41:12;;;;;;;5.90;4.43;;;6.60;99.90;;;;;;5114430;28;20408;-90
2022/02/11 11:43:39;;;;;;;3.93;2.70;;;6.50;99.90;;;;;;5114020;28;20450;-88
2022/02/11 11:46:34;;;;;;;6.13;3.53;;;6.50;99.90;;;;;;5112974;28;20910;-88
2022/02/11 11:49:03;;;;;;;8.43;3.30;;;6.80;99.90;;;;;;5101154;28;20420;-88
2022/02/11 11:51:35;;;;;;;7.23;3.20;;;6.80;99.90;;;;;;5114236;28;20735;-89
2022/02/11 11:54:16;;;;;;;5.07;2.83;;;6.90;99.90;;;;;;5114138;28;20894;-86
2022/02/11 11:56:48;;;;;;;7.30;3.97;;;7.00;99.90;;;;;;5112650;28;20436;-88
2022/02/11 11:59:36;;;;;;;4.07;3.50;;;7.40;99.90;;;;;;5114059;28;20922;-88
2022/02/11 12:02:09;;;;;;;9.80;4.60;;;7.70;99.90;;;;;;5113778;28;20966;-89
2022/02/11 12:04:56;;;;;;;3.90;2.70;;;10.70;99.90;;;;;;5112843;28;20419;-89
2022/02/11 12:07:27;;;;;;;6.27;2.20;;;9.50;99.90;;;;;;5113838;28;20912;-89
2022/02/11 12:09:55;;;;;;;5.83;2.07;;;10.50;99.90;;;;;;5114061;28;20412;-88
2022/02/11 12:12:23;;;;;;;6.97;2.50;;;12.10;1.00;;;;;;5113593;28;20416;-91
2022/02/11 12:14:53;;;;;;;3.30;1.70;;;12.50;1.00;;;;;;5112634;28;20468;-88
2022/02/11 12:17:22;;;;;;;3.17;1.80;;;12.10;1.00;;;;;;5116196;28;20407;-89
2022/02/11 12:19:50;;;;;;;2.13;1.73;;;12.30;1.00;;;;;;5117130;28;20505;-91
2022/02/11 12:22:16;;;;;;;2.83;1.30;;;12.60;1.00;;;;;;5116995;28;20425;-90
2022/02/11 12:27:39;;;;;;;5.90;2.23;;;9.40;1.00;;;;;;5118259;28;20409;-90
2022/02/11 12:30:16;;;;;;;4.60;2.60;;;8.40;99.90;;;;;;5118316;28;20404;-90
2022/02/11 12:32:45;;;;;;;4.73;2.33;;;9.10;1.00;;;;;;5118192;28;20416;-88
2022/02/11 12:35:17;;;;;;;3.23;1.57;;;8.10;99.90;;;;;;5118096;28;20561;-89
2022/02/11 12:37:45;;;;;;;9.40;3.67;;;8.40;99.90;;;;;;5117726;28;20411;-89
2022/02/11 12:40:28;;;;;;;3.50;1.60;;;9.40;99.90;;;;;;5116636;28;20427;-88
2022/02/11 12:42:59;;;;;;;5.53;2.27;;;8.30;1.00;;;;;;5117431;28;20464;-89
2022/02/11 12:45:29;;;;;;;5.63;1.70;;;9.20;99.90;;;;;;5118708;28;20514;-91
2022/02/11 12:47:55;;;;;;;4.27;2.00;;;8.40;99.90;;;;;;5117130;28;20426;-89
2022/02/11 12:50:29;;;;;;;4.87;2.50;;;7.90;99.90;;;;;;5116867;28;20416;-91
2022/02/11 12:52:57;;;;;;;6.90;2.30;;;7.50;99.90;;;;;;5118116;28;20490;-90
2022/02/11 12:55:25;;;;;;;3.67;2.67;;;7.30;99.90;;;;;;5117574;28;20474;-90
2022/02/11 12:57:53;;;;;;;3.30;1.37;;;7.40;99.90;;;;;;5111593;28;20856;-91
2022/02/11 13:00:24;;;;;;;3.20;1.80;;;9.50;99.90;;;;;;5116665;28;20451;-88
2022/02/11 13:02:55;;;;;;;4.83;1.87;;;9.00;99.90;;;;;;5116459;28;20471;-88
2022/02/11 13:05:24;;;;;;;3.40;1.30;;;9.40;99.90;;;;;;5117798;28;20729;-90
2022/02/11 13:07:52;;;;;;;2.37;0.93;;;9.60;99.90;;;;;;5117681;28;20402;-88
2022/02/11 13:10:33;;;;;;;3.40;2.10;;;8.70;99.90;;;;;;5117392;28;20406;-88
2022/02/11 13:13:03;;;;;;;7.63;2.63;;;8.10;99.90;;;;;;5115810;28;20428;-90
2022/02/11 13:15:31;;;;;;;5.50;1.77;;;7.70;99.90;;;;;;5116124;28;20529;-89
2022/02/11 13:18:11;;;;;;;2.97;2.33;;;7.40;99.90;;;;;;5116007;28;20419;-89
2022/02/11 13:20:44;;;;;;;4.90;3.43;;;7.30;99.90;;;;;;5116049;28;20474;-90
2022/02/11 13:23:14;;;;;;;10.63;3.80;;;7.10;99.90;;;;;;5117076;28;20413;-88
2022/02/11 13:25:41;;;;;;;6.70;3.80;;;6.90;99.90;;;;;;5116033;28;20424;-89
2022/02/11 13:28:18;;;;;;;3.73;2.83;;;6.70;99.90;;;;;;5114188;28;20431;-90
2022/02/11 13:30:46;;;;;;;2.97;1.53;;;6.20;99.90;;;;;;5115734;28;20922;-88
2022/02/11 13:33:22;;;;;;;1.50;1.00;;;5.90;99.90;;;;;;5116463;28;20463;-87
2022/02/11 13:35:52;;;;;;;4.97;1.60;;;5.60;99.90;;;;;;5116232;28;20854;-87
2022/02/11 13:38:28;;;;;;;1.53;1.00;;;5.50;99.90;;;;;;5116312;28;20841;-87
2022/02/11 13:40:57;;;;;;;3.40;1.53;;;5.30;99.90;;;;;;5116008;28;20412;-89
2022/02/11 13:43:23;;;;;;;2.20;1.63;;;5.30;99.90;;;;;;5115050;28;20405;-86
2022/02/11 13:45:53;;;;;;;1.43;0.87;;;5.20;99.90;;;;;;5116087;28;20445;-87
2022/02/11 13:48:20;;;;;;;3.13;1.10;;;5.10;99.90;;;;;;5110818;28;20460;-87
2022/02/11 13:51:12;;;;;;;5.43;0.60;;;5.20;99.90;;;;;;5093974;28;20418;-88
2022/02/11 13:53:48;;;;;;;1.80;0.60;;;5.10;99.90;;;;;;5115492;28;20806;-86
2022/02/11 13:56:17;;;;;;;0.67;0.67;;;5.00;99.90;;;;;;5115130;28;20865;-87
2022/02/11 13:59:08;;;;;;;1.70;0.60;;;5.20;99.90;;;;;;5115629;28;20487;-87
2022/02/11 14:01:37;;;;;;;0.40;0.20;;;5.10;99.90;;;;;;5100982;28;20748;-88
2022/02/11 14:04:11;;;;;;;0.50;0.20;;;5.10;99.90;;;;;;5093971;28;20415;-87
2022/02/11 14:06:52;;;;;;;0.93;0.20;;;5.20;99.90;;;;;;5093999;28;20450;-88
2022/02/11 14:09:37;;;;;;;1.50;0.30;;;5.20;99.90;;;;;;5095065;28;20413;-87
2022/02/11 14:12:23;;;;;;;2.13;0.30;;;5.20;99.90;;;;;;5093618;28;20426;-86
2022/02/11 14:14:56;;;;;;;4.20;0.30;;;5.10;99.90;;;;;;5082684;28;20830;-87
2022/02/11 14:17:22;;;;;;;3.23;0.40;;;5.20;99.90;;;;;;5093452;28;20920;-87
2022/02/11 14:19:49;;;;;;;1.90;0.70;;;5.30;99.90;;;;;;5093391;28;20427;-87
2022/02/11 14:22:16;;;;;;;1.33;0.40;;;5.30;99.90;;;;;;5093824;28;20169;-88
2022/02/11 14:24:42;;;;;;;3.83;0.50;;;5.40;99.90;;;;;;5093910;28;20501;-87
2022/02/11 14:27:07;;;;;;;2.83;0.70;;;5.30;99.90;;;;;;5093315;28;20519;-87
2022/02/11 14:29:36;;;;;;;3.20;0.40;;;5.30;99.90;;;;;;5093459;28;20178;-88
2022/02/11 14:32:04;;;;;;;1.23;0.53;;;5.40;99.90;;;;;;5093440;28;20173;-88
2022/02/11 14:34:29;;;;;;;3.00;0.50;;;5.40;99.90;;;;;;5094712;28;20455;-87
2022/02/11 14:36:55;;;;;;;1.80;0.50;;;5.30;99.90;;;;;;5093549;28;20484;-88
2022/02/11 14:39:23;;;;;;;2.27;0.43;;;5.10;99.90;;;;;;5092970;28;20179;-90
2022/02/11 14:41:51;;;;;;;1.70;0.70;;;5.00;99.90;;;;;;5092898;28;20651;-89
2022/02/11 14:44:19;;;;;;;8.33;1.10;;;5.00;99.90;;;;;;5094712;28;20426;-88
2022/02/11 14:46:47;;;;;;;5.20;0.93;;;5.10;99.90;;;;;;5096096;28;20518;-88
2022/02/11 14:49:13;;;;;;;4.07;1.00;;;5.10;99.90;;;;;;5115032;28;20829;-87
2022/02/11 14:51:39;;;;;;;4.97;0.70;;;5.10;99.90;;;;;;5115335;28;20459;-87
2022/02/11 14:54:09;;;;;;;3.23;0.87;;;5.10;99.90;;;;;;5113870;28;20461;-90
2022/02/11 14:56:35;;;;;;;1.37;0.40;;;5.20;99.90;;;;;;5113646;28;20436;-90
2022/02/11 14:59:01;;;;;;;0.80;0.70;;;5.10;99.90;;;;;;5114252;28;20437;-89
2022/02/11 15:01:27;;;;;;;3.13;0.73;;;5.00;99.90;;;;;;5114453;28;20437;-88
2022/02/11 15:03:52;;;;;;;1.17;0.60;;;5.00;99.90;;;;;;5114209;28;20249;-88
2022/02/11 15:06:18;;;;;;;1.57;0.40;;;5.00;99.90;;;;;;5114747;28;20171;-87
2022/02/11 15:08:43;;;;;;;2.73;0.40;;;4.90;99.90;;;;;;5131286;27;20169;-88
2022/02/11 15:11:12;;;;;;;2.47;0.40;;;4.80;99.90;;;;;;5135012;27;20189;-91
2022/02/11 15:13:38;;;;;;;1.17;0.60;;;4.80;99.90;;;;;;5134125;27;20170;-88
2022/02/11 15:16:04;;;;;;;1.93;0.83;;;4.80;99.90;;;;;;5134187;27;20436;-89
2022/02/11 15:18:30;;;;;;;1.27;0.47;;;4.80;99.90;;;;;;5133905;27;20539;-87
2022/02/11 15:20:55;;;;;;;1.53;0.57;;;4.70;99.90;;;;;;5135275;27;20566;-87
2022/02/11 15:23:24;;;;;;;0.50;0.20;;;4.70;99.90;;;;;;5133547;27;20169;-89
2022/02/11 15:25:50;;;;;;;1.17;0.30;;;4.60;99.90;;;;;;5134921;27;20159;-87
2022/02/11 15:28:15;;;;;;;1.03;0.30;;;4.60;99.90;;;;;;5134834;27;20461;-88
2022/02/11 15:30:41;;;;;;;5.43;0.50;;;4.60;99.90;;;;;;5134249;27;20163;-87
2022/02/11 15:33:06;;;;;;;1.70;0.27;;;4.50;99.90;;;;;;5134411;27;20171;-90
2022/02/11 15:35:32;;;;;;;4.73;1.07;;;4.40;99.90;;;;;;5121792;27;20314;-89
2022/02/11 15:38:01;;;;;;;3.10;0.40;;;4.30;99.90;;;;;;5113478;28;20168;-88
2022/02/11 15:40:27;;;;;;;4.33;0.57;;;4.20;99.90;;;;;;5113236;28;20236;-90
2022/02/11 15:42:54;;;;;;;4.57;0.30;;;4.20;99.90;;;;;;5113882;28;20496;-88
2022/02/11 15:45:20;;;;;;;5.23;0.70;;;4.20;99.90;;;;;;5114570;28;20410;-89
2022/02/11 15:47:52;;;;;;;3.10;0.67;;;4.20;99.90;;;;;;5112763;28;20450;-87
2022/02/11 15:50:18;;;;;;;1.23;0.20;;;4.20;99.90;;;;;;5113482;28;20890;-86
2022/02/11 15:52:43;;;;;;;2.10;0.40;;;4.20;99.90;;;;;;5113590;28;20497;-88
2022/02/11 15:55:10;;;;;;;5.50;0.50;;;4.30;99.90;;;;;;5113312;28;20349;-91
2022/02/11 15:57:36;;;;;;;2.63;1.17;;;4.20;99.90;;;;;;5113463;28;20221;-88
2022/02/11 16:00:05;;;;;;;2.30;0.40;;;4.10;99.90;;;;;;5112597;28;20428;-87
2022/02/11 16:02:30;;;;;;;2.00;0.53;;;4.00;99.90;;;;;;5113519;28;20495;-87
2022/02/11 16:04:56;;;;;;;1.70;0.67;;;4.00;99.90;;;;;;5112763;28;20424;-85
2022/02/11 16:07:23;;;;;;;2.20;0.77;;;4.00;99.90;;;;;;5107173;28;20178;-85
2022/02/11 16:09:50;;;;;;;2.37;0.83;;;3.90;99.90;;;;;;5095861;28;20624;-89
2022/02/11 16:12:15;;;;;;;4.33;0.30;;;4.00;99.90;;;;;;5091974;28;20418;-88
2022/02/11 16:14:41;;;;;;;2.43;0.50;;;4.00;99.90;;;;;;5091041;28;20462;-89
2022/02/11 16:17:09;;;;;;;3.27;0.50;;;4.00;99.90;;;;;;5092572;28;20174;-90
2022/02/11 16:19:35;;;;;;;2.27;0.73;;;3.90;99.90;;;;;;5094193;28;20199;-87
2022/02/11 16:22:01;;;;;;;4.53;1.20;;;3.80;99.90;;;;;;5092355;28;20451;-88
2022/02/11 16:24:26;;;;;;;1.43;0.30;;;3.80;99.90;;;;;;5093913;28;20699;-89
2022/02/11 16:26:53;;;;;;;0.67;0.23;;;3.70;99.90;;;;;;5104653;28;20199;-91
2022/02/11 16:29:18;;;;;;;4.60;0.43;;;3.70;99.90;;;;;;5101497;28;20180;-87
2022/02/11 16:31:49;;;;;;;4.13;0.63;;;3.60;99.90;;;;;;5100168;28;20414;-90
2022/02/11 16:34:16;;;;;;;4.43;0.47;;;3.60;99.90;;;;;;5097738;28;20201;-88